Time;durP1;ratioP1;P1;durP2;ratioP2;P2;SDS_P1;SDS_P2;PMS_P1;PMS_P2;Temp;Humidity;BMP_temperature;BMP_pressure;BME280_temperature;BME280_humidity;BME280_pressure;Samples;Min_cycle;Max_cycle;Signal;HPM_P1;HPM_P2
2022/07/07 00:00:23;;;;;;;12.27;8.00;;;;;;;21.99;100.00;101862.16;7393419;19;20375;-50
2022/07/07 00:02:53;;;;;;;11.20;9.47;;;;;;;21.76;100.00;101856.78;7393114;19;20031;-51
2022/07/07 00:05:22;;;;;;;15.80;9.63;;;;;;;21.50;100.00;101844.50;7394121;19;20246;-45
2022/07/07 00:07:52;;;;;;;10.40;8.07;;;;;;;21.73;100.00;101837.47;7391028;19;20070;-45
2022/07/07 00:10:21;;;;;;;10.25;8.45;;;;;;;21.99;100.00;101824.81;7391692;19;20048;-45
2022/07/07 00:12:50;;;;;;;11.48;7.70;;;;;;;22.24;100.00;101820.25;7392960;19;20056;-46
2022/07/07 00:15:22;;;;;;;10.57;7.63;;;;;;;22.30;100.00;101835.78;7393628;19;20389;-49
2022/07/07 00:17:51;;;;;;;11.32;8.30;;;;;;;21.68;100.00;101835.16;7395876;19;20011;-48
2022/07/07 00:20:20;;;;;;;10.10;7.45;;;;;;;21.83;100.00;101827.81;7393074;19;20015;-45
2022/07/07 00:22:49;;;;;;;12.20;8.25;;;;;;;21.78;100.00;101830.81;7392679;19;20025;-46
2022/07/07 00:25:18;;;;;;;10.93;7.97;;;;;;;21.84;100.00;101818.84;7395282;19;20010;-47
2022/07/07 00:27:47;;;;;;;11.93;8.75;;;;;;;21.82;100.00;101812.78;7389987;19;20087;-47
2022/07/07 00:30:16;;;;;;;13.32;10.15;;;;;;;21.91;100.00;101811.22;7392588;19;20037;-46
2022/07/07 00:32:48;;;;;;;13.70;10.27;;;;;;;21.99;100.00;101803.44;7390105;19;20028;-47
2022/07/07 00:35:16;;;;;;;14.65;10.32;;;;;;;21.70;100.00;101798.53;7392803;19;20017;-46
2022/07/07 00:37:45;;;;;;;12.73;9.88;;;;;;;21.85;100.00;101795.66;7393450;19;20361;-47
2022/07/07 00:40:14;;;;;;;11.43;9.00;;;;;;;21.47;100.00;101796.75;7391764;19;20015;-47
2022/07/07 00:42:43;;;;;;;13.48;9.55;;;;;;;21.64;100.00;101788.34;7392670;19;20015;-48
2022/07/07 00:45:12;;;;;;;11.32;8.75;;;;;;;21.83;100.00;101793.13;7392162;19;20021;-50
2022/07/07 00:47:41;;;;;;;11.48;9.35;;;;;;;21.98;100.00;101799.09;7390644;19;20022;-45
2022/07/07 00:50:13;;;;;;;13.23;9.55;;;;;;;21.80;100.00;101790.69;7391429;19;20026;-46
2022/07/07 00:52:43;;;;;;;16.13;8.73;;;;;;;21.90;100.00;101791.66;7390090;19;20019;-46
2022/07/07 00:55:11;;;;;;;13.35;9.23;;;;;;;21.93;100.00;101787.94;7392206;19;20763;-51
2022/07/07 00:57:40;;;;;;;12.73;9.45;;;;;;;22.08;100.00;101784.06;7391832;19;20023;-47
2022/07/07 01:00:12;;;;;;;14.18;9.20;;;;;;;22.07;100.00;101787.69;7391356;19;20032;-46
2022/07/07 01:02:43;;;;;;;15.30;9.15;;;;;;;22.03;100.00;101791.56;7392048;19;20022;-46
2022/07/07 01:05:16;;;;;;;12.90;9.85;;;;;;;21.80;100.00;101787.19;7391051;19;20015;-46
2022/07/07 01:07:45;;;;;;;12.30;9.27;;;;;;;22.03;100.00;101788.06;7389490;19;20497;-47
2022/07/07 01:10:14;;;;;;;14.55;9.68;;;;;;;22.07;100.00;101773.50;7391650;19;20022;-48
2022/07/07 01:12:43;;;;;;;17.30;10.70;;;;;;;21.86;100.00;101774.19;7389443;19;20018;-47
2022/07/07 01:15:15;;;;;;;15.30;10.68;;;;;;;21.61;100.00;101775.25;7391911;19;20018;-46
2022/07/07 01:17:44;;;;;;;15.30;10.93;;;;;;;21.51;100.00;101772.41;7391358;19;20091;-46
2022/07/07 01:20:16;;;;;;;16.00;11.13;;;;;;;21.34;100.00;101775.47;7391005;19;20014;-45
2022/07/07 01:22:52;;;;;;;13.23;10.43;;;;;;;21.69;100.00;101775.53;7391408;19;20494;-46
2022/07/07 01:25:22;;;;;;;14.52;11.00;;;;;;;21.80;100.00;101773.84;7390744;19;20107;-48
2022/07/07 01:27:52;;;;;;;13.10;9.98;;;;;;;21.93;100.00;101770.09;7389843;19;20506;-48
2022/07/07 01:30:21;;;;;;;15.50;10.25;;;;;;;21.87;100.00;101765.22;7390083;19;20023;-44
2022/07/07 01:32:50;;;;;;;12.40;10.05;;;;;;;21.89;100.00;101763.31;7389688;19;20018;-45
2022/07/07 01:35:19;;;;;;;13.32;9.00;;;;;;;21.96;100.00;101763.66;7389845;19;20011;-45
2022/07/07 01:37:50;;;;;;;13.85;9.85;;;;;;;21.92;100.00;101755.06;7387867;19;20022;-45
2022/07/07 01:40:19;;;;;;;12.55;9.40;;;;;;;22.20;100.00;101760.91;7389179;19;20018;-45
2022/07/07 01:42:48;;;;;;;13.40;9.52;;;;;;;22.23;100.00;101754.47;7390706;19;20014;-46
2022/07/07 01:45:17;;;;;;;13.35;10.15;;;;;;;22.06;100.00;101745.13;7390471;19;20014;-46
2022/07/07 01:47:46;;;;;;;13.95;9.55;;;;;;;22.35;100.00;101742.00;7388418;19;20006;-46
2022/07/07 01:50:15;;;;;;;13.07;9.52;;;;;;;22.25;100.00;101745.38;7387778;19;20021;-46
2022/07/07 01:52:44;;;;;;;16.27;9.20;;;;;;;22.32;100.00;101751.06;7388705;19;20022;-45
2022/07/07 01:55:15;;;;;;;12.48;8.82;;;;;;;22.11;100.00;101748.28;7389632;19;20011;-47
2022/07/07 01:57:44;;;;;;;11.52;8.60;;;;;;;22.20;100.00;101750.22;7388192;19;20482;-45
2022/07/07 02:00:15;;;;;;;11.40;7.72;;;;;;;22.36;100.00;101749.88;7392898;19;20018;-48
2022/07/07 02:02:44;;;;;;;11.70;7.75;;;;;;;22.41;100.00;101749.53;7389948;19;20078;-50
2022/07/07 02:05:13;;;;;;;11.13;7.13;;;;;;;22.58;100.00;101737.47;7389990;19;20022;-47
2022/07/07 02:07:42;;;;;;;12.55;6.88;;;;;;;22.36;100.00;101738.34;7388251;19;20321;-45
2022/07/07 02:10:11;;;;;;;11.38;6.50;;;;;;;22.59;100.00;101739.16;7389581;19;20352;-46
2022/07/07 02:12:43;;;;;;;7.55;5.60;;;;;;;22.74;100.00;101734.41;7388373;19;20015;-45
2022/07/07 02:15:12;;;;;;;8.30;4.97;;;;;;;22.63;100.00;101732.63;7389376;19;20022;-47
2022/07/07 02:17:41;;;;;;;7.93;5.55;;;;;;;22.39;100.00;101725.59;7387765;19;20025;-45
2022/07/07 02:20:11;;;;;;;9.23;5.07;;;;;;;22.64;100.00;101729.81;7391723;19;20014;-47
2022/07/07 02:22:40;;;;;;;11.07;5.35;;;;;;;22.18;100.00;101724.59;7393433;19;20018;-46
2022/07/07 02:25:10;;;;;;;6.00;4.50;;;;;;;22.54;100.00;101722.66;7389335;19;20018;-45
2022/07/07 02:27:38;;;;;;;10.52;5.45;;;;;;;22.22;100.00;101716.25;7387518;19;20014;-46
2022/07/07 02:30:11;;;;;;;9.10;5.72;;;;;;;22.21;100.00;101727.03;7386635;19;20130;-48
2022/07/07 02:32:40;;;;;;;9.07;5.22;;;;;;;22.19;100.00;101745.00;7386153;19;20486;-47
2022/07/07 02:35:10;;;;;;;11.38;5.20;;;;;;;21.77;100.00;101743.75;7388806;19;20072;-48
2022/07/07 02:37:39;;;;;;;6.57;4.47;;;;;;;21.18;100.00;101746.47;7387606;19;20023;-47
2022/07/07 02:40:10;;;;;;;5.97;4.00;;;;;;;21.14;100.00;101748.47;7390389;19;20337;-48
2022/07/07 02:42:39;;;;;;;5.00;3.42;;;;;;;20.58;100.00;101751.66;7389678;19;20129;-46
2022/07/07 02:45:12;;;;;;;4.65;4.07;;;;;;;20.49;100.00;101754.94;7389015;19;20015;-45
2022/07/07 02:47:41;;;;;;;8.63;4.65;;;;;;;20.85;100.00;101759.47;7389590;19;20029;-47
2022/07/07 02:50:10;;;;;;;5.43;4.10;;;;;;;20.80;100.00;101768.78;7393996;19;20022;-46
2022/07/07 02:52:39;;;;;;;9.55;5.80;;;;;;;20.49;100.00;101760.28;7394397;19;20025;-49
2022/07/07 02:55:09;;;;;;;7.57;5.20;;;;;;;20.06;100.00;101753.53;7396559;19;20022;-49
2022/07/07 02:57:38;;;;;;;8.32;5.07;;;;;;;20.45;100.00;101753.50;7393556;19;20010;-47
2022/07/07 03:00:12;;;;;;;8.05;5.45;;;;;;;20.61;100.00;101742.59;7397110;19;20048;-52
2022/07/07 03:02:41;;;;;;;7.18;4.60;;;;;;;20.85;100.00;101740.00;7395547;19;20022;-44
2022/07/07 03:05:11;;;;;;;6.40;4.55;;;;;;;20.09;100.00;101745.34;7395167;19;20021;-47
2022/07/07 03:07:40;;;;;;;7.45;4.10;;;;;;;19.97;100.00;101743.53;7392292;19;20014;-47
2022/07/07 03:10:10;;;;;;;7.38;4.30;;;;;;;19.97;100.00;101740.84;7394923;19;20517;-45
2022/07/07 03:12:39;;;;;;;5.97;3.92;;;;;;;19.87;100.00;101738.84;7394072;19;20014;-48
2022/07/07 03:15:12;;;;;;;7.78;4.30;;;;;;;19.93;100.00;101737.56;7395118;19;20100;-44
2022/07/07 03:17:43;;;;;;;5.50;4.25;;;;;;;19.83;100.00;101739.16;7393348;19;20010;-49
2022/07/07 03:20:14;;;;;;;7.60;4.25;;;;;;;20.04;100.00;101729.72;7395507;19;20014;-47
2022/07/07 03:22:44;;;;;;;7.18;4.40;;;;;;;20.08;100.00;101734.81;7395399;19;20014;-47
2022/07/07 03:25:13;;;;;;;5.43;3.58;;;;;;;20.21;100.00;101733.81;7395064;19;20011;-45
2022/07/07 03:27:43;;;;;;;5.78;4.20;;;;;;;20.27;100.00;101734.34;7396105;19;20019;-46
2022/07/07 03:30:15;;;;;;;7.60;4.45;;;;;;;20.04;100.00;101727.03;7393810;19;20022;-44
2022/07/07 03:32:44;;;;;;;4.93;3.67;;;;;;;20.14;100.00;101724.56;7393715;19;20042;-50
2022/07/07 03:35:12;;;;;;;64.50;11.85;;;;;;;20.10;100.00;101723.09;7396008;19;20014;-45
2022/07/07 03:37:41;;;;;;;9.05;4.50;;;;;;;20.22;100.00;101719.56;7395159;19;20011;-49
2022/07/07 03:40:12;;;;;;;7.18;4.50;;;;;;;20.52;100.00;101733.47;7397555;19;20010;-45
2022/07/07 03:42:41;;;;;;;18.40;6.72;;;;;;;20.56;100.00;101730.47;7395113;19;20328;-46
2022/07/07 03:45:14;;;;;;;7.07;4.55;;;;;;;20.21;100.00;101728.50;7393858;19;20015;-48
2022/07/07 03:47:43;;;;;;;5.05;4.40;;;;;;;20.25;100.00;101728.28;7391565;19;20025;-47
2022/07/07 03:50:12;;;;;;;8.80;5.00;;;;;;;20.10;100.00;101724.88;7395420;19;20092;-48
2022/07/07 03:52:40;;;;;;;6.10;4.28;;;;;;;20.16;100.00;101716.47;7393504;19;20014;-51
2022/07/07 03:55:11;;;;;;;6.05;4.22;;;;;;;20.13;100.00;101719.34;7394509;19;20018;-47
2022/07/07 03:57:41;;;;;;;6.47;4.30;;;;;;;20.26;100.00;101708.69;7391153;19;20332;-46
2022/07/07 04:00:15;;;;;;;7.47;5.05;;;;;;;20.19;100.00;101713.63;7391417;19;20124;-45
2022/07/07 04:02:44;;;;;;;7.22;5.00;;;;;;;20.09;100.00;101709.88;7395262;19;20018;-44
2022/07/07 04:05:13;;;;;;;8.27;5.10;;;;;;;20.07;100.00;101707.31;7394209;19;20018;-47
2022/07/07 04:07:42;;;;;;;6.40;4.80;;;;;;;20.19;100.00;101713.63;7391629;19;20014;-46
2022/07/07 04:10:11;;;;;;;7.55;5.18;;;;;;;20.21;100.00;101712.53;7393404;19;20018;-46
2022/07/07 04:12:40;;;;;;;7.72;5.10;;;;;;;20.39;100.00;101713.03;7393327;19;20026;-50
2022/07/07 04:15:11;;;;;;;5.40;4.90;;;;;;;20.32;100.00;101708.28;7393880;19;20029;-48
2022/07/07 04:17:42;;;;;;;6.95;5.13;;;;;;;20.33;100.00;101713.47;7390815;19;20026;-47
2022/07/07 04:20:11;;;;;;;6.68;4.70;;;;;;;20.38;100.00;101710.47;7393156;19;20017;-49
2022/07/07 04:22:41;;;;;;;6.47;4.85;;;;;;;20.27;100.00;101721.88;7394271;19;20015;-46
2022/07/07 04:25:11;;;;;;;8.40;6.03;;;;;;;20.29;100.00;101719.09;7394722;19;20019;-46
2022/07/07 04:27:40;;;;;;;7.68;5.95;;;;;;;20.22;100.00;101718.72;7392637;19;20022;-47
2022/07/07 04:30:11;;;;;;;9.23;5.75;;;;;;;19.93;100.00;101718.97;7393837;19;20325;-48
2022/07/07 04:32:42;;;;;;;6.70;4.50;;;;;;;20.07;100.00;101717.97;7398240;19;20752;-47
2022/07/07 04:35:12;;;;;;;9.30;4.13;;;;;;;20.02;100.00;101722.78;7394126;19;20011;-45
2022/07/07 04:37:41;;;;;;;4.28;3.17;;;;;;;19.61;100.00;101729.94;7392019;19;20340;-46
2022/07/07 04:40:10;;;;;;;4.43;3.10;;;;;;;20.00;100.00;101733.53;7392961;19;20022;-48
2022/07/07 04:42:39;;;;;;;7.25;4.30;;;;;;;19.79;100.00;101738.53;7393886;19;20014;-48
2022/07/07 04:45:10;;;;;;;10.30;4.88;;;;;;;20.14;100.00;101729.03;7393264;19;20022;-47
2022/07/07 04:47:44;;;;;;;6.97;4.25;;;;;;;20.11;100.00;101737.25;7392082;19;20022;-46
2022/07/07 04:50:14;;;;;;;7.18;4.70;;;;;;;20.23;100.00;101731.03;7392753;19;20037;-46
2022/07/07 04:52:43;;;;;;;5.53;3.85;;;;;;;19.98;100.00;101742.56;7396081;19;20014;-52
2022/07/07 04:55:12;;;;;;;6.10;3.88;;;;;;;20.12;100.00;101746.94;7393690;19;20006;-52
2022/07/07 04:57:41;;;;;;;7.35;4.38;;;;;;;20.12;100.00;101741.63;7391758;19;20029;-50
2022/07/07 05:00:11;;;;;;;6.60;4.30;;;;;;;20.13;100.00;101738.84;7392346;19;20022;-49
2022/07/07 05:02:42;;;;;;;5.82;3.85;;;;;;;20.02;100.00;101749.38;7393842;19;20021;-50
2022/07/07 05:05:11;;;;;;;6.90;3.70;;;;;;;20.02;100.00;101763.53;7392498;19;20018;-48
2022/07/07 05:07:40;;;;;;;5.50;3.67;;;;;;;19.95;100.00;101758.75;7391854;19;20010;-48
2022/07/07 05:10:10;;;;;;;5.82;3.92;;;;;;;20.35;100.00;101761.28;7390200;19;20018;-48
2022/07/07 05:12:39;;;;;;;9.18;4.55;;;;;;;20.34;100.00;101764.91;7392106;19;20463;-46
2022/07/07 05:15:09;;;;;;;8.82;3.72;;;;;;;20.27;100.00;101776.94;7392434;19;20025;-51
2022/07/07 05:17:39;;;;;;;6.15;3.20;;;;;;;20.16;100.00;101780.34;7390769;19;20022;-46
2022/07/07 05:20:11;;;;;;;6.85;3.60;;;;;;;19.88;100.00;101777.78;7391299;19;20010;-49
2022/07/07 05:22:40;;;;;;;6.35;3.30;;;;;;;20.20;100.00;101787.16;7391233;19;20014;-48
2022/07/07 05:25:10;;;;;;;6.80;3.47;;;;;;;20.39;100.00;101786.72;7392475;19;20018;-45
2022/07/07 05:27:39;;;;;;;5.68;2.40;;;;;;;19.97;100.00;101794.06;7390266;19;20362;-49
2022/07/07 05:30:09;;;;;;;7.05;2.28;;;;;;;19.81;100.00;101794.28;7391246;19;20018;-48
2022/07/07 05:32:38;;;;;;;6.50;2.58;;;;;;;20.16;100.00;101801.63;7392481;19;20533;-46
2022/07/07 05:35:10;;;;;;;5.15;2.53;;;;;;;20.28;100.00;101814.09;7396696;19;20019;-47
2022/07/07 05:37:40;;;;;;;8.27;2.60;;;;;;;19.40;100.00;101814.69;7390356;19;20034;-45
2022/07/07 05:40:11;;;;;;;7.43;2.08;;;;;;;20.03;100.00;101817.59;7390623;19;20701;-46
2022/07/07 05:42:40;;;;;;;8.90;2.35;;;;;;;19.91;100.00;101819.28;7391394;19;20011;-48
2022/07/07 05:45:10;;;;;;;6.10;1.77;;;;;;;20.00;100.00;101821.31;7391664;19;20021;-46
2022/07/07 05:47:39;;;;;;;8.25;2.40;;;;;;;20.16;100.00;101834.44;7391097;19;20015;-46
2022/07/07 05:50:11;;;;;;;7.70;1.98;;;;;;;19.97;100.00;101834.84;7390362;19;20010;-47
2022/07/07 05:52:40;;;;;;;8.63;2.37;;;;;;;20.22;100.00;101838.47;7391015;19;20018;-48
2022/07/07 05:55:10;;;;;;;7.50;1.95;;;;;;;19.86;100.00;101838.22;7394501;19;20460;-50
2022/07/07 05:57:39;;;;;;;7.32;1.98;;;;;;;19.90;100.00;101832.69;7389514;19;20018;-51
2022/07/07 06:00:10;;;;;;;9.10;2.30;;;;;;;20.56;100.00;101841.44;7389897;19;20010;-47
2022/07/07 06:02:41;;;;;;;7.18;1.83;;;;;;;20.41;100.00;101854.00;7391613;19;20389;-48
2022/07/07 06:05:13;;;;;;;10.25;2.30;;;;;;;20.41;100.00;101854.00;7391219;19;20017;-45
2022/07/07 06:07:42;;;;;;;7.85;2.10;;;;;;;20.26;100.00;101855.94;7391907;19;20021;-49
2022/07/07 06:10:14;;;;;;;9.15;2.30;;;;;;;20.12;100.00;101861.38;7392516;19;20372;-47
2022/07/07 06:12:43;;;;;;;14.97;2.27;;;;;;;20.14;100.00;101872.75;7393188;19;20086;-49
2022/07/07 06:15:13;;;;;;;13.25;2.40;;;;;;;19.82;100.00;101873.94;7396493;19;20021;-44
2022/07/07 06:17:42;;;;;;;8.80;2.00;;;;;;;20.28;100.00;101882.44;7393665;19;20030;-45
2022/07/07 06:20:14;;;;;;;10.20;2.28;;;;;;;20.71;100.00;101880.34;7392870;19;20015;-47
2022/07/07 06:22:43;;;;;;;11.80;2.63;;;;;;;20.61;100.00;101887.25;7392496;19;20352;-48
2022/07/07 06:25:12;;;;;;;14.10;2.55;;;;;;;20.38;100.00;101886.19;7392315;19;20025;-46
2022/07/07 06:27:41;;;;;;;9.48;1.98;;;;;;;19.62;100.00;101890.34;7391637;19;20019;-50
2022/07/07 06:30:12;;;;;;;10.77;2.33;;;;;;;19.76;100.00;101898.28;7392331;19;20019;-48
2022/07/07 06:32:41;;;;;;;7.25;2.10;;;;;;;19.91;100.00;101901.75;7392165;19;20409;-46
2022/07/07 06:35:10;;;;;;;8.93;2.00;;;;;;;19.63;100.00;101902.69;7392900;19;20018;-47
2022/07/07 06:37:42;;;;;;;9.98;1.98;;;;;;;19.76;100.00;101895.63;7389469;19;20015;-45
2022/07/07 06:40:12;;;;;;;8.63;2.33;;;;;;;19.72;100.00;101899.44;7390483;19;20021;-45
2022/07/07 06:42:42;;;;;;;6.70;2.03;;;;;;;19.80;100.00;101901.59;7390732;19;20033;-47
2022/07/07 06:45:15;;;;;;;8.13;2.22;;;;;;;19.68;100.00;101911.22;7389176;19;20018;-45
2022/07/07 06:47:44;;;;;;;9.18;1.80;;;;;;;19.93;100.00;101909.63;7387336;19;20030;-47
2022/07/07 06:50:14;;;;;;;6.97;1.95;;;;;;;20.02;100.00;101904.53;7389449;19;20614;-45
2022/07/07 06:52:46;;;;;;;7.68;2.00;;;;;;;20.25;100.00;101914.59;7390125;19;20018;-44
2022/07/07 06:55:14;;;;;;;9.98;1.75;;;;;;;19.54;100.00;101907.66;7390384;19;20010;-45
2022/07/07 06:57:43;;;;;;;6.82;1.67;;;;;;;19.68;100.00;101913.88;7388458;19;20475;-47
2022/07/07 07:00:14;;;;;;;6.93;2.00;;;;;;;19.59;100.00;101918.00;7388927;19;20018;-47
2022/07/07 07:02:44;;;;;;;7.18;1.98;;;;;;;19.11;100.00;101923.69;7389761;19;20107;-46
2022/07/07 07:05:14;;;;;;;6.20;1.98;;;;;;;19.47;100.00;101919.66;7394725;19;20014;-48
2022/07/07 07:07:45;;;;;;;9.80;2.35;;;;;;;19.75;100.00;101912.50;7388030;19;20022;-45
2022/07/07 07:10:14;;;;;;;7.32;2.13;;;;;;;19.90;100.00;101921.31;7389037;19;20021;-45
2022/07/07 07:12:43;;;;;;;7.20;2.35;;;;;;;19.72;100.00;101926.03;7389261;19;20011;-46
2022/07/07 07:15:13;;;;;;;7.38;1.90;;;;;;;20.18;100.00;101925.66;7386795;19;20619;-49
2022/07/07 07:17:42;;;;;;;7.47;1.80;;;;;;;20.24;100.00;101921.72;7391556;19;20026;-46
2022/07/07 07:20:14;;;;;;;8.05;1.85;;;;;;;20.21;100.00;101930.75;7388674;19;20026;-47
2022/07/07 07:22:45;;;;;;;6.57;1.95;;;;;;;20.50;100.00;101932.41;7389696;19;20014;-45
2022/07/07 07:25:15;;;;;;;11.65;2.17;;;;;;;20.26;100.00;101930.47;7389672;19;20011;-47
2022/07/07 07:27:44;;;;;;;6.78;1.60;;;;;;;20.41;100.00;101939.22;7388217;19;20015;-57
2022/07/07 07:30:14;;;;;;;9.98;2.08;;;;;;;19.48;100.00;101944.41;7394238;19;20018;-56
2022/07/07 07:32:43;;;;;;;6.07;1.55;;;;;;;19.96;100.00;101950.19;7392285;19;20019;-56
2022/07/07 07:35:12;;;;;;;6.80;1.42;;;;;;;19.97;100.00;101951.03;7395883;19;20011;-56
2022/07/07 07:37:41;;;;;;;8.77;1.65;;;;;;;19.70;100.00;101954.50;7397609;19;20026;-56
2022/07/07 07:40:14;;;;;;;7.88;1.45;;;;;;;19.89;100.00;101951.56;7396311;19;20018;-50
2022/07/07 07:42:44;;;;;;;4.82;1.25;;;;;;;20.49;100.00;101957.31;7396908;19;20553;-53
2022/07/07 07:45:13;;;;;;;5.10;1.42;;;;;;;20.26;100.00;101965.06;7394965;19;20006;-55
2022/07/07 07:47:45;;;;;;;5.22;1.70;;;;;;;20.52;100.00;101968.63;7396118;19;20515;-56
2022/07/07 07:50:15;;;;;;;7.65;1.92;;;;;;;20.35;100.00;101963.59;7399253;19;20006;-52
2022/07/07 07:52:46;;;;;;;8.45;1.48;;;;;;;20.49;100.00;101970.63;7396710;19;20340;-55
2022/07/07 07:55:19;;;;;;;5.35;1.52;;;;;;;20.23;100.00;101971.44;7393951;19;20021;-54
2022/07/07 07:57:48;;;;;;;6.53;1.70;;;;;;;20.50;100.00;101972.34;7394918;19;20487;-55
2022/07/07 08:00:19;;;;;;;7.70;1.40;;;;;;;20.53;100.00;101975.66;7395711;19;20006;-57
2022/07/07 08:02:49;;;;;;;5.40;1.65;;;;;;;20.60;100.00;101978.72;7399135;19;20010;-52
2022/07/07 08:05:20;;;;;;;4.43;1.67;;;;;;;20.63;100.00;101972.34;7396984;19;20018;-52
2022/07/07 08:07:48;;;;;;;4.75;1.63;;;;;;;20.73;100.00;101974.31;7397438;19;20025;-52
2022/07/07 08:10:21;;;;;;;3.70;1.50;;;;;;;20.73;100.00;101984.97;7395965;19;20030;-56
2022/07/07 08:12:50;;;;;;;6.28;1.85;;;;;;;20.50;100.00;101994.50;7396752;19;20075;-58
2022/07/07 08:15:19;;;;;;;7.82;2.13;;;;;;;20.63;100.00;101993.66;7393670;19;20022;-50
2022/07/07 08:17:49;;;;;;;8.05;2.13;;;;;;;20.80;100.00;101984.53;7394506;19;20019;-53
2022/07/07 08:20:18;;;;;;;8.15;2.72;;;;;;;20.40;100.00;101985.41;7394886;19;20006;-51
2022/07/07 08:22:46;;;;;;;8.65;2.15;;;;;;;20.48;100.00;101992.91;7392432;19;20014;-56
2022/07/07 08:25:15;;;;;;;5.30;2.17;;;;;;;20.34;100.00;101983.19;7395340;19;20010;-55
2022/07/07 08:27:47;;;;;;;10.20;2.58;;;;;;;20.53;100.00;101993.44;7393126;19;20025;-54
2022/07/07 08:30:17;;;;;;;10.50;2.30;;;;;;;20.24;100.00;101990.91;7394357;19;20018;-55
2022/07/07 08:32:46;;;;;;;5.78;2.08;;;;;;;20.11;100.00;101993.53;7399665;19;20048;-56
2022/07/07 08:35:16;;;;;;;6.75;2.03;;;;;;;20.25;100.00;101978.47;7393061;19;20015;-53
2022/07/07 08:37:45;;;;;;;6.15;2.03;;;;;;;20.23;100.00;101991.88;7395460;19;20019;-55
2022/07/07 08:40:14;;;;;;;6.05;2.38;;;;;;;20.55;100.00;101995.03;7393104;19;20011;-57
2022/07/07 08:42:47;;;;;;;9.60;2.30;;;;;;;20.65;100.00;102002.41;7394194;19;20483;-53
2022/07/07 08:45:16;;;;;;;7.20;2.00;;;;;;;19.60;100.00;102007.44;7393679;19;20117;-53
2022/07/07 08:47:45;;;;;;;8.10;1.63;;;;;;;20.17;100.00;102011.78;7393448;19;20017;-54
2022/07/07 08:50:14;;;;;;;3.97;1.60;;;;;;;20.07;100.00;102004.50;7393366;19;20017;-56
2022/07/07 08:52:42;;;;;;;3.70;1.20;;;;;;;19.83;100.00;102011.31;7397979;19;20003;-54
2022/07/07 08:55:15;;;;;;;10.77;1.90;;;;;;;20.30;100.00;102008.28;7392146;19;20391;-52
2022/07/07 08:57:47;;;;;;;4.70;1.02;;;;;;;20.25;100.00;102021.06;7392776;19;20022;-51
2022/07/07 09:00:16;;;;;;;4.55;1.30;;;;;;;20.27;100.00;102020.00;7393195;19;20019;-50
2022/07/07 09:02:45;;;;;;;3.40;1.20;;;;;;;20.27;100.00;102025.31;7393862;19;20048;-53
2022/07/07 09:05:14;;;;;;;6.65;1.83;;;;;;;20.35;100.00;102028.31;7392758;19;20018;-52
2022/07/07 09:07:46;;;;;;;4.50;1.52;;;;;;;20.62;100.00;102037.22;7393096;19;20018;-51
2022/07/07 09:10:29;;;;;;;5.07;1.45;;;;;;;20.65;100.00;102040.53;7393123;19;20029;-51
2022/07/07 09:13:01;;;;;;;5.68;1.50;;;;;;;20.63;100.00;102044.25;7396203;19;20021;-50
2022/07/07 09:15:39;;;;;;;4.10;1.75;;;;;;;20.63;100.00;102053.13;7392640;19;20078;-49
2022/07/07 09:18:09;;;;;;;6.47;1.80;;;;;;;20.23;100.00;102051.28;7392890;19;20026;-50
2022/07/07 09:20:38;;;;;;;4.25;1.77;;;;;;;20.25;100.00;102051.19;7393259;19;20029;-52
2022/07/07 09:23:08;;;;;;;3.67;1.60;;;;;;;20.33;100.00;102058.66;7393708;19;20023;-52
2022/07/07 09:25:37;;;;;;;5.78;1.70;;;;;;;20.56;100.00;102062.44;7393897;19;20015;-51
2022/07/07 09:28:09;;;;;;;4.60;1.42;;;;;;;20.38;100.00;102062.72;7391317;19;20703;-52
2022/07/07 09:30:40;;;;;;;5.88;2.03;;;;;;;20.69;100.00;102062.50;7392470;19;20046;-54
2022/07/07 09:33:11;;;;;;;4.70;1.33;;;;;;;21.09;100.00;102057.16;7394723;19;20017;-51
2022/07/07 09:38:25;;;;;;;3.45;1.70;;;;;;;21.25;100.00;102060.44;7390642;19;20054;-51
2022/07/07 09:40:58;;;;;;;2.15;1.30;;;;;;;21.72;100.00;102075.88;7391823;19;20494;-54
2022/07/07 09:43:30;;;;;;;;;;;;;;;21.49;100.00;102072.16;7392270;19;20015;-52
2022/07/07 09:46:14;;;;;;;3.78;1.50;;;;;;;20.99;100.00;102094.25;7392756;19;20281;-51
2022/07/07 09:48:45;;;;;;;4.20;1.48;;;;;;;21.07;100.00;102099.88;7394799;19;20459;-52
2022/07/07 09:51:19;;;;;;;2.83;1.35;;;;;;;21.02;100.00;102103.81;7392159;19;20021;-48
2022/07/07 09:54:08;;;;;;;2.50;1.05;;;;;;;20.79;100.00;102100.91;7392542;19;20010;-51
2022/07/07 09:56:38;;;;;;;4.20;1.23;;;;;;;20.52;100.00;102106.25;7390965;19;20014;-56
2022/07/07 09:59:11;;;;;;;2.08;1.00;;;;;;;20.86;100.00;102112.00;7390472;19;20022;-51
2022/07/07 10:01:42;;;;;;;3.72;1.25;;;;;;;20.16;100.00;102110.34;7395948;19;20021;-51
2022/07/07 10:04:13;;;;;;;2.92;1.20;;;;;;;20.08;100.00;102117.97;7390667;19;20015;-47
2022/07/07 10:06:44;;;;;;;3.55;1.23;;;;;;;20.36;100.00;102122.34;7391842;19;20022;-55
2022/07/07 10:09:14;;;;;;;3.90;1.25;;;;;;;20.26;100.00;102119.44;7389214;19;20034;-53
2022/07/07 10:11:45;;;;;;;3.65;1.40;;;;;;;20.54;100.00;102130.94;7391322;19;20015;-49
2022/07/07 10:14:22;;;;;;;3.17;1.40;;;;;;;20.66;100.00;102124.81;7392017;19;20025;-49
2022/07/07 10:16:53;;;;;;;4.28;1.70;;;;;;;21.17;100.00;102126.75;7391342;19;20085;-50
2022/07/07 10:19:23;;;;;;;4.95;1.73;;;;;;;21.38;100.00;102134.25;7388789;19;20029;-49
2022/07/07 10:21:54;;;;;;;3.67;1.20;;;;;;;21.35;100.00;102134.44;7390811;19;20026;-54
2022/07/07 10:24:25;;;;;;;2.25;1.00;;;;;;;21.36;100.00;102131.69;7391573;19;20011;-52
2022/07/07 10:26:56;;;;;;;4.22;1.40;;;;;;;21.74;100.00;102135.31;7391128;19;20364;-52
2022/07/07 10:29:42;;;;;;;8.10;2.92;;;;;;;21.83;100.00;102140.00;7388476;19;20023;-53
2022/07/07 10:32:13;;;;;;;3.58;1.00;;;;;;;21.71;100.00;102141.72;7391097;19;20010;-52
2022/07/07 10:34:49;;;;;;;6.38;1.35;;;;;;;21.83;100.00;102155.16;7391364;19;20014;-49
2022/07/07 10:37:19;;;;;;;5.70;2.13;;;;;;;21.99;100.00;102152.25;7390422;19;20390;-51
2022/07/07 10:39:49;;;;;;;2.50;0.88;;;;;;;22.01;100.00;102163.66;7390194;19;20010;-53
2022/07/07 10:42:33;;;;;;;2.97;1.00;;;;;;;21.75;100.00;102169.06;7391056;19;20440;-50
2022/07/07 10:45:05;;;;;;;4.97;1.25;;;;;;;21.69;100.00;102166.81;7390464;19;20018;-52
2022/07/07 10:47:37;;;;;;;5.45;1.70;;;;;;;21.91;100.00;102168.81;7390856;19;20029;-52
2022/07/07 10:50:23;;;;;;;4.18;1.42;;;;;;;21.66;100.00;102169.69;7389638;19;20015;-55
2022/07/07 10:52:53;;;;;;;3.70;1.27;;;;;;;21.64;100.00;102169.81;7391204;19;20011;-51
2022/07/07 10:55:22;;;;;;;3.17;1.30;;;;;;;21.24;100.00;102172.53;7390809;19;20371;-53
2022/07/07 10:57:51;;;;;;;4.10;1.60;;;;;;;21.80;100.00;102174.91;7389498;19;20546;-53
2022/07/07 11:00:29;;;;;;;4.00;1.60;;;;;;;21.67;100.00;102176.75;7387909;19;20015;-55
2022/07/07 11:03:13;;;;;;;3.78;1.40;;;;;;;21.86;100.00;102178.97;7390117;19;20026;-54
2022/07/07 11:05:46;;;;;;;4.55;1.40;;;;;;;21.97;100.00;102184.41;7391137;19;20010;-52
2022/07/07 11:08:18;;;;;;;4.68;1.23;;;;;;;22.17;100.00;102179.44;7389087;19;20018;-51
2022/07/07 11:10:52;;;;;;;6.30;1.85;;;;;;;22.18;100.00;102182.00;7397368;19;20021;-50
2022/07/07 11:13:25;;;;;;;5.10;1.35;;;;;;;22.44;100.00;102179.28;7398844;19;20018;-54
2022/07/07 11:16:12;;;;;;;7.80;3.30;;;;;;;21.96;100.00;102193.34;7398598;19;20010;-51
2022/07/07 11:18:42;;;;;;;4.25;1.48;;;;;;;20.80;100.00;102214.50;7396507;19;20527;-52
2022/07/07 11:21:11;;;;;;;3.67;1.65;;;;;;;20.88;100.00;102211.34;7398338;19;20021;-55
2022/07/07 11:23:53;;;;;;;2.97;1.67;;;;;;;21.04;100.00;102214.69;7397395;19;20478;-58
2022/07/07 11:26:24;;;;;;;4.32;2.55;;;;;;;21.64;100.00;102219.66;7398442;19;20018;-50
2022/07/07 11:28:54;;;;;;;6.68;1.95;;;;;;;22.16;100.00;102213.28;7395230;19;20007;-52
2022/07/07 11:31:28;;;;;;;6.03;2.35;;;;;;;22.63;100.00;102221.53;7396975;19;20018;-52